sensor_id;sensor_type;location;lat;lon;timestamp;temperature;humidity
52799;DHT22;38667;42.872;74.622;2022-11-06T00:00:44;8.20;88.20
52799;DHT22;38667;42.872;74.622;2022-11-06T00:03:10;8.20;88.10
52799;DHT22;38667;42.872;74.622;2022-11-06T00:05:39;8.30;87.50
52799;DHT22;38667;42.872;74.622;2022-11-06T00:08:06;8.30;87.80
52799;DHT22;38667;42.872;74.622;2022-11-06T00:10:32;8.40;87.70
52799;DHT22;38667;42.872;74.622;2022-11-06T00:12:59;8.30;87.20
52799;DHT22;38667;42.872;74.622;2022-11-06T00:15:25;8.40;88.00
52799;DHT22;38667;42.872;74.622;2022-11-06T00:17:53;8.40;87.80
52799;DHT22;38667;42.872;74.622;2022-11-06T00:20:20;8.40;87.70
52799;DHT22;38667;42.872;74.622;2022-11-06T00:22:47;8.40;88.00
52799;DHT22;38667;42.872;74.622;2022-11-06T00:25:13;8.40;87.90
52799;DHT22;38667;42.872;74.622;2022-11-06T00:27:42;8.40;88.80
52799;DHT22;38667;42.872;74.622;2022-11-06T00:30:12;8.30;89.10
52799;DHT22;38667;42.872;74.622;2022-11-06T00:32:39;8.30;89.20
52799;DHT22;38667;42.872;74.622;2022-11-06T00:35:08;8.30;89.20
52799;DHT22;38667;42.872;74.622;2022-11-06T00:37:34;8.30;89.70
52799;DHT22;38667;42.872;74.622;2022-11-06T00:40:01;8.30;90.00
52799;DHT22;38667;42.872;74.622;2022-11-06T00:42:27;8.30;90.20
52799;DHT22;38667;42.872;74.622;2022-11-06T00:44:53;8.30;90.50
52799;DHT22;38667;42.872;74.622;2022-11-06T00:47:23;8.30;90.60
52799;DHT22;38667;42.872;74.622;2022-11-06T00:49:49;8.30;90.90
52799;DHT22;38667;42.872;74.622;2022-11-06T00:52:17;8.30;90.30
52799;DHT22;38667;42.872;74.622;2022-11-06T00:54:43;8.30;90.30
52799;DHT22;38667;42.872;74.622;2022-11-06T00:57:10;8.30;91.10
52799;DHT22;38667;42.872;74.622;2022-11-06T00:59:36;8.30;91.00
52799;DHT22;38667;42.872;74.622;2022-11-06T01:02:02;8.40;90.90
52799;DHT22;38667;42.872;74.622;2022-11-06T01:04:29;8.40;90.60
52799;DHT22;38667;42.872;74.622;2022-11-06T01:06:55;8.40;90.90
52799;DHT22;38667;42.872;74.622;2022-11-06T01:09:24;8.40;90.30
52799;DHT22;38667;42.872;74.622;2022-11-06T01:11:52;8.40;90.20
52799;DHT22;38667;42.872;74.622;2022-11-06T01:14:20;8.40;90.40
52799;DHT22;38667;42.872;74.622;2022-11-06T01:16:47;8.40;89.90
52799;DHT22;38667;42.872;74.622;2022-11-06T01:19:15;8.40;90.00
52799;DHT22;38667;42.872;74.622;2022-11-06T01:21:44;8.30;90.60
52799;DHT22;38667;42.872;74.622;2022-11-06T01:24:12;8.30;90.50
52799;DHT22;38667;42.872;74.622;2022-11-06T01:26:41;8.30;91.20
52799;DHT22;38667;42.872;74.622;2022-11-06T01:29:09;8.30;91.30
52799;DHT22;38667;42.872;74.622;2022-11-06T01:31:36;8.30;90.40
52799;DHT22;38667;42.872;74.622;2022-11-06T01:34:03;8.30;89.90
52799;DHT22;38667;42.872;74.622;2022-11-06T01:36:30;8.40;89.00
52799;DHT22;38667;42.872;74.622;2022-11-06T01:38:59;8.40;89.00
52799;DHT22;38667;42.872;74.622;2022-11-06T01:41:27;8.30;88.50
52799;DHT22;38667;42.872;74.622;2022-11-06T01:43:58;8.30;88.50
52799;DHT22;38667;42.872;74.622;2022-11-06T01:46:26;8.30;88.20
52799;DHT22;38667;42.872;74.622;2022-11-06T01:48:54;8.30;89.10
52799;DHT22;38667;42.872;74.622;2022-11-06T01:51:22;8.30;88.90
52799;DHT22;38667;42.872;74.622;2022-11-06T01:53:50;8.20;88.40
52799;DHT22;38667;42.872;74.622;2022-11-06T01:56:17;8.20;89.30
52799;DHT22;38667;42.872;74.622;2022-11-06T01:58:46;8.20;90.00
52799;DHT22;38667;42.872;74.622;2022-11-06T02:01:15;8.10;90.60
52799;DHT22;38667;42.872;74.622;2022-11-06T02:03:47;8.20;90.00
52799;DHT22;38667;42.872;74.622;2022-11-06T02:06:15;8.10;90.30
52799;DHT22;38667;42.872;74.622;2022-11-06T02:08:41;8.10;90.70
52799;DHT22;38667;42.872;74.622;2022-11-06T02:11:08;8.10;90.30
52799;DHT22;38667;42.872;74.622;2022-11-06T02:13:42;8.10;90.80
52799;DHT22;38667;42.872;74.622;2022-11-06T02:16:20;8.10;89.90
52799;DHT22;38667;42.872;74.622;2022-11-06T02:19:16;8.10;88.30
52799;DHT22;38667;42.872;74.622;2022-11-06T02:22:13;8.30;83.70
52799;DHT22;38667;42.872;74.622;2022-11-06T02:24:54;8.40;80.30
52799;DHT22;38667;42.872;74.622;2022-11-06T02:27:27;8.50;78.90
52799;DHT22;38667;42.872;74.622;2022-11-06T02:29:58;8.40;80.20
52799;DHT22;38667;42.872;74.622;2022-11-06T02:32:28;8.40;80.60
52799;DHT22;38667;42.872;74.622;2022-11-06T02:34:56;8.30;81.00
52799;DHT22;38667;42.872;74.622;2022-11-06T02:37:28;8.30;80.50
52799;DHT22;38667;42.872;74.622;2022-11-06T02:39:57;8.30;81.70
52799;DHT22;38667;42.872;74.622;2022-11-06T02:42:27;8.30;82.20
52799;DHT22;38667;42.872;74.622;2022-11-06T02:44:56;8.20;81.60
52799;DHT22;38667;42.872;74.622;2022-11-06T02:47:25;8.30;82.20
52799;DHT22;38667;42.872;74.622;2022-11-06T02:49:55;8.30;82.60
52799;DHT22;38667;42.872;74.622;2022-11-06T02:52:26;8.40;82.50
52799;DHT22;38667;42.872;74.622;2022-11-06T02:54:56;8.40;81.80
52799;DHT22;38667;42.872;74.622;2022-11-06T02:57:26;8.40;82.10
52799;DHT22;38667;42.872;74.622;2022-11-06T03:00:00;8.30;82.40
52799;DHT22;38667;42.872;74.622;2022-11-06T03:02:30;8.20;82.00
52799;DHT22;38667;42.872;74.622;2022-11-06T03:05:04;8.10;82.10
52799;DHT22;38667;42.872;74.622;2022-11-06T03:07:33;8.00;83.00
52799;DHT22;38667;42.872;74.622;2022-11-06T03:10:02;7.90;83.30
52799;DHT22;38667;42.872;74.622;2022-11-06T03:12:32;7.90;83.10
52799;DHT22;38667;42.872;74.622;2022-11-06T03:15:08;7.90;83.20
52799;DHT22;38667;42.872;74.622;2022-11-06T03:17:40;7.80;83.00
52799;DHT22;38667;42.872;74.622;2022-11-06T03:20:17;7.80;83.00
52799;DHT22;38667;42.872;74.622;2022-11-06T03:22:50;7.80;82.90
52799;DHT22;38667;42.872;74.622;2022-11-06T03:25:22;7.80;83.40
52799;DHT22;38667;42.872;74.622;2022-11-06T03:28:00;7.90;83.00
52799;DHT22;38667;42.872;74.622;2022-11-06T03:30:28;7.80;82.20
52799;DHT22;38667;42.872;74.622;2022-11-06T03:32:57;7.90;82.90
52799;DHT22;38667;42.872;74.622;2022-11-06T03:35:28;7.90;82.70
52799;DHT22;38667;42.872;74.622;2022-11-06T03:38:00;7.90;82.50
52799;DHT22;38667;42.872;74.622;2022-11-06T03:40:30;7.80;82.60
52799;DHT22;38667;42.872;74.622;2022-11-06T03:43:01;7.90;82.50
52799;DHT22;38667;42.872;74.622;2022-11-06T03:45:30;7.90;82.70
52799;DHT22;38667;42.872;74.622;2022-11-06T03:47:59;8.00;83.00
52799;DHT22;38667;42.872;74.622;2022-11-06T03:50:29;8.10;82.50
52799;DHT22;38667;42.872;74.622;2022-11-06T03:53:02;8.10;82.90
52799;DHT22;38667;42.872;74.622;2022-11-06T03:55:33;8.20;83.20
52799;DHT22;38667;42.872;74.622;2022-11-06T03:58:05;8.30;82.20
52799;DHT22;38667;42.872;74.622;2022-11-06T04:00:35;8.40;81.50
52799;DHT22;38667;42.872;74.622;2022-11-06T04:03:09;8.60;80.90
52799;DHT22;38667;42.872;74.622;2022-11-06T04:05:41;8.60;80.80
52799;DHT22;38667;42.872;74.622;2022-11-06T04:08:09;8.70;81.00
52799;DHT22;38667;42.872;74.622;2022-11-06T04:10:38;8.80;80.50
52799;DHT22;38667;42.872;74.622;2022-11-06T04:13:07;8.90;80.50
52799;DHT22;38667;42.872;74.622;2022-11-06T04:15:36;8.90;80.60
52799;DHT22;38667;42.872;74.622;2022-11-06T04:18:11;9.00;80.40
52799;DHT22;38667;42.872;74.622;2022-11-06T04:20:42;9.10;80.30
52799;DHT22;38667;42.872;74.622;2022-11-06T04:23:16;9.10;80.40
52799;DHT22;38667;42.872;74.622;2022-11-06T04:25:53;9.10;80.80
52799;DHT22;38667;42.872;74.622;2022-11-06T04:28:31;9.20;81.20
52799;DHT22;38667;42.872;74.622;2022-11-06T04:31:10;9.20;81.60
52799;DHT22;38667;42.872;74.622;2022-11-06T04:33:44;9.20;81.30
52799;DHT22;38667;42.872;74.622;2022-11-06T04:36:20;9.30;82.10
52799;DHT22;38667;42.872;74.622;2022-11-06T04:38:54;9.30;82.30
52799;DHT22;38667;42.872;74.622;2022-11-06T04:41:27;9.30;81.70
52799;DHT22;38667;42.872;74.622;2022-11-06T04:44:00;9.40;81.50
52799;DHT22;38667;42.872;74.622;2022-11-06T04:46:31;9.40;81.20
52799;DHT22;38667;42.872;74.622;2022-11-06T04:49:00;9.40;81.70
52799;DHT22;38667;42.872;74.622;2022-11-06T04:51:30;9.50;81.80
52799;DHT22;38667;42.872;74.622;2022-11-06T04:53:58;9.50;81.30
52799;DHT22;38667;42.872;74.622;2022-11-06T04:56:28;9.60;81.30
52799;DHT22;38667;42.872;74.622;2022-11-06T04:58:55;9.60;81.90
52799;DHT22;38667;42.872;74.622;2022-11-06T05:01:23;9.80;81.90
52799;DHT22;38667;42.872;74.622;2022-11-06T05:03:49;9.90;82.10
52799;DHT22;38667;42.872;74.622;2022-11-06T05:06:16;9.90;81.50
52799;DHT22;38667;42.872;74.622;2022-11-06T05:08:42;10.00;81.30
52799;DHT22;38667;42.872;74.622;2022-11-06T05:11:08;10.00;81.70
52799;DHT22;38667;42.872;74.622;2022-11-06T05:13:35;10.10;81.70
52799;DHT22;38667;42.872;74.622;2022-11-06T05:16:01;10.10;81.80
52799;DHT22;38667;42.872;74.622;2022-11-06T05:18:29;10.10;82.20
52799;DHT22;38667;42.872;74.622;2022-11-06T05:20:58;10.10;82.90
52799;DHT22;38667;42.872;74.622;2022-11-06T05:23:24;10.20;81.90
52799;DHT22;38667;42.872;74.622;2022-11-06T05:25:51;10.20;82.00
52799;DHT22;38667;42.872;74.622;2022-11-06T05:28:17;10.20;82.00
52799;DHT22;38667;42.872;74.622;2022-11-06T05:30:44;10.20;82.50
52799;DHT22;38667;42.872;74.622;2022-11-06T05:33:11;10.20;81.90
52799;DHT22;38667;42.872;74.622;2022-11-06T05:35:39;10.40;82.40
52799;DHT22;38667;42.872;74.622;2022-11-06T05:38:05;10.30;81.40
52799;DHT22;38667;42.872;74.622;2022-11-06T05:40:32;10.30;83.40
52799;DHT22;38667;42.872;74.622;2022-11-06T05:42:58;10.40;82.10
52799;DHT22;38667;42.872;74.622;2022-11-06T05:45:24;10.50;81.70
52799;DHT22;38667;42.872;74.622;2022-11-06T05:47:51;10.60;81.20
52799;DHT22;38667;42.872;74.622;2022-11-06T05:50:17;10.70;80.70
52799;DHT22;38667;42.872;74.622;2022-11-06T05:53:00;10.60;80.80
52799;DHT22;38667;42.872;74.622;2022-11-06T05:55:26;10.80;81.20
52799;DHT22;38667;42.872;74.622;2022-11-06T05:57:52;10.90;80.10
52799;DHT22;38667;42.872;74.622;2022-11-06T06:00:19;11.00;79.60
52799;DHT22;38667;42.872;74.622;2022-11-06T06:02:45;11.20;79.70
52799;DHT22;38667;42.872;74.622;2022-11-06T06:05:11;11.40;78.80
52799;DHT22;38667;42.872;74.622;2022-11-06T06:07:38;11.60;78.10
52799;DHT22;38667;42.872;74.622;2022-11-06T06:10:07;11.60;77.40
52799;DHT22;38667;42.872;74.622;2022-11-06T06:12:33;11.60;77.60
52799;DHT22;38667;42.872;74.622;2022-11-06T06:14:59;11.70;77.80
52799;DHT22;38667;42.872;74.622;2022-11-06T06:17:26;11.70;77.40
52799;DHT22;38667;42.872;74.622;2022-11-06T06:19:52;11.80;77.50
52799;DHT22;38667;42.872;74.622;2022-11-06T06:22:19;11.80;77.40
52799;DHT22;38667;42.872;74.622;2022-11-06T06:24:45;11.80;78.30
52799;DHT22;38667;42.872;74.622;2022-11-06T06:27:13;11.70;78.20
52799;DHT22;38667;42.872;74.622;2022-11-06T06:29:39;11.60;77.70
52799;DHT22;38667;42.872;74.622;2022-11-06T06:32:05;11.40;79.30
52799;DHT22;38667;42.872;74.622;2022-11-06T06:34:32;11.50;79.70
52799;DHT22;38667;42.872;74.622;2022-11-06T06:36:59;11.50;79.90
52799;DHT22;38667;42.872;74.622;2022-11-06T06:39:25;11.50;80.60
52799;DHT22;38667;42.872;74.622;2022-11-06T06:41:51;11.70;79.50
52799;DHT22;38667;42.872;74.622;2022-11-06T06:44:19;11.80;78.70
52799;DHT22;38667;42.872;74.622;2022-11-06T06:46:45;11.80;78.10
52799;DHT22;38667;42.872;74.622;2022-11-06T06:49:12;11.90;78.30
52799;DHT22;38667;42.872;74.622;2022-11-06T06:51:38;12.10;78.50
52799;DHT22;38667;42.872;74.622;2022-11-06T06:54:04;12.20;76.90
52799;DHT22;38667;42.872;74.622;2022-11-06T06:56:31;12.30;76.80
52799;DHT22;38667;42.872;74.622;2022-11-06T06:58:57;12.30;77.70
52799;DHT22;38667;42.872;74.622;2022-11-06T07:01:25;12.10;77.00
52799;DHT22;38667;42.872;74.622;2022-11-06T07:03:51;12.00;77.70
52799;DHT22;38667;42.872;74.622;2022-11-06T07:06:18;12.10;78.90
52799;DHT22;38667;42.872;74.622;2022-11-06T07:08:44;12.10;77.40
52799;DHT22;38667;42.872;74.622;2022-11-06T07:11:11;12.00;77.40
52799;DHT22;38667;42.872;74.622;2022-11-06T07:13:37;12.00;78.40
52799;DHT22;38667;42.872;74.622;2022-11-06T07:16:05;12.00;78.70
52799;DHT22;38667;42.872;74.622;2022-11-06T07:18:33;12.10;77.90
52799;DHT22;38667;42.872;74.622;2022-11-06T07:21:02;12.20;77.80
52799;DHT22;38667;42.872;74.622;2022-11-06T07:23:29;12.30;76.80
52799;DHT22;38667;42.872;74.622;2022-11-06T07:25:55;12.50;76.20
52799;DHT22;38667;42.872;74.622;2022-11-06T07:28:21;13.00;74.50
52799;DHT22;38667;42.872;74.622;2022-11-06T07:30:48;13.40;71.90
52799;DHT22;38667;42.872;74.622;2022-11-06T07:33:14;13.40;71.60
52799;DHT22;38667;42.872;74.622;2022-11-06T07:35:42;13.40;72.00
52799;DHT22;38667;42.872;74.622;2022-11-06T07:38:08;13.40;72.00
52799;DHT22;38667;42.872;74.622;2022-11-06T07:40:35;13.30;72.70
52799;DHT22;38667;42.872;74.622;2022-11-06T07:43:05;13.40;72.20
52799;DHT22;38667;42.872;74.622;2022-11-06T07:45:32;13.50;71.90
52799;DHT22;38667;42.872;74.622;2022-11-06T07:47:58;13.40;71.90
52799;DHT22;38667;42.872;74.622;2022-11-06T07:50:25;13.30;72.40
52799;DHT22;38667;42.872;74.622;2022-11-06T07:52:53;13.10;72.60
52799;DHT22;38667;42.872;74.622;2022-11-06T07:55:20;12.90;73.50
52799;DHT22;38667;42.872;74.622;2022-11-06T07:57:46;12.70;73.90
52799;DHT22;38667;42.872;74.622;2022-11-06T08:00:13;12.60;75.10
52799;DHT22;38667;42.872;74.622;2022-11-06T08:02:40;12.30;75.80
52799;DHT22;38667;42.872;74.622;2022-11-06T08:05:07;12.30;76.10
52799;DHT22;38667;42.872;74.622;2022-11-06T08:07:33;12.10;76.60
52799;DHT22;38667;42.872;74.622;2022-11-06T08:10:01;11.90;77.50
52799;DHT22;38667;42.872;74.622;2022-11-06T08:12:27;11.80;78.80
52799;DHT22;38667;42.872;74.622;2022-11-06T08:14:53;11.80;78.70
52799;DHT22;38667;42.872;74.622;2022-11-06T08:17:20;11.80;79.00
52799;DHT22;38667;42.872;74.622;2022-11-06T08:19:46;12.00;78.00
52799;DHT22;38667;42.872;74.622;2022-11-06T08:22:12;12.10;76.70
52799;DHT22;38667;42.872;74.622;2022-11-06T08:24:39;12.20;76.60
52799;DHT22;38667;42.872;74.622;2022-11-06T08:27:06;12.10;76.60
52799;DHT22;38667;42.872;74.622;2022-11-06T08:29:33;12.10;76.00
52799;DHT22;38667;42.872;74.622;2022-11-06T08:31:59;12.20;76.70
52799;DHT22;38667;42.872;74.622;2022-11-06T08:34:25;12.20;75.30
52799;DHT22;38667;42.872;74.622;2022-11-06T08:36:52;12.30;75.50
52799;DHT22;38667;42.872;74.622;2022-11-06T08:39:18;12.30;74.70
52799;DHT22;38667;42.872;74.622;2022-11-06T08:41:44;12.20;75.10
52799;DHT22;38667;42.872;74.622;2022-11-06T08:44:12;12.30;75.20
52799;DHT22;38667;42.872;74.622;2022-11-06T08:46:38;12.40;75.10
52799;DHT22;38667;42.872;74.622;2022-11-06T08:49:04;12.10;75.20
52799;DHT22;38667;42.872;74.622;2022-11-06T08:51:31;11.80;77.10
52799;DHT22;38667;42.872;74.622;2022-11-06T08:53:57;11.80;77.40
52799;DHT22;38667;42.872;74.622;2022-11-06T08:56:23;11.70;78.20
52799;DHT22;38667;42.872;74.622;2022-11-06T08:58:50;11.80;77.50
52799;DHT22;38667;42.872;74.622;2022-11-06T09:01:17;11.70;77.60
52799;DHT22;38667;42.872;74.622;2022-11-06T09:03:44;11.70;77.90
52799;DHT22;38667;42.872;74.622;2022-11-06T09:06:10;11.70;77.60
52799;DHT22;38667;42.872;74.622;2022-11-06T09:08:36;11.80;78.00
52799;DHT22;38667;42.872;74.622;2022-11-06T09:11:05;11.50;78.90
52799;DHT22;38667;42.872;74.622;2022-11-06T09:13:31;11.20;79.70
52799;DHT22;38667;42.872;74.622;2022-11-06T09:15:59;11.20;80.80
52799;DHT22;38667;42.872;74.622;2022-11-06T09:18:26;11.20;81.40
52799;DHT22;38667;42.872;74.622;2022-11-06T09:20:53;11.20;79.90
52799;DHT22;38667;42.872;74.622;2022-11-06T09:23:20;11.30;80.30
52799;DHT22;38667;42.872;74.622;2022-11-06T09:25:46;11.40;79.70
52799;DHT22;38667;42.872;74.622;2022-11-06T09:28:12;11.40;79.20
52799;DHT22;38667;42.872;74.622;2022-11-06T09:30:39;11.50;79.00
52799;DHT22;38667;42.872;74.622;2022-11-06T09:33:05;11.50;77.50
52799;DHT22;38667;42.872;74.622;2022-11-06T09:35:34;11.50;77.40
52799;DHT22;38667;42.872;74.622;2022-11-06T09:38:01;11.40;76.90
52799;DHT22;38667;42.872;74.622;2022-11-06T09:40:32;11.40;77.50
52799;DHT22;38667;42.872;74.622;2022-11-06T09:43:19;11.40;78.10
52799;DHT22;38667;42.872;74.622;2022-11-06T09:45:48;11.40;77.90
52799;DHT22;38667;42.872;74.622;2022-11-06T09:48:18;11.30;78.00
52799;DHT22;38667;42.872;74.622;2022-11-06T09:50:51;11.20;78.40
52799;DHT22;38667;42.872;74.622;2022-11-06T09:53:21;11.20;79.20
52799;DHT22;38667;42.872;74.622;2022-11-06T09:55:49;11.10;79.00
52799;DHT22;38667;42.872;74.622;2022-11-06T09:58:21;11.10;79.10
52799;DHT22;38667;42.872;74.622;2022-11-06T10:00:51;11.00;79.50
52799;DHT22;38667;42.872;74.622;2022-11-06T10:03:22;11.00;80.00
52799;DHT22;38667;42.872;74.622;2022-11-06T10:05:53;11.00;80.50
52799;DHT22;38667;42.872;74.622;2022-11-06T10:08:21;11.10;80.30
52799;DHT22;38667;42.872;74.622;2022-11-06T10:10:55;11.20;80.00
52799;DHT22;38667;42.872;74.622;2022-11-06T10:13:34;11.20;79.10
52799;DHT22;38667;42.872;74.622;2022-11-06T10:16:07;11.30;79.30
52799;DHT22;38667;42.872;74.622;2022-11-06T10:18:43;11.40;78.90
52799;DHT22;38667;42.872;74.622;2022-11-06T10:21:20;11.40;78.90
52799;DHT22;38667;42.872;74.622;2022-11-06T10:23:49;11.40;78.70
52799;DHT22;38667;42.872;74.622;2022-11-06T10:26:18;11.40;78.50
52799;DHT22;38667;42.872;74.622;2022-11-06T10:31:49;11.40;78.60
52799;DHT22;38667;42.872;74.622;2022-11-06T10:34:22;11.30;79.90
52799;DHT22;38667;42.872;74.622;2022-11-06T10:36:55;11.10;80.30
52799;DHT22;38667;42.872;74.622;2022-11-06T10:39:27;11.00;80.60
52799;DHT22;38667;42.872;74.622;2022-11-06T10:41:57;10.90;81.40
52799;DHT22;38667;42.872;74.622;2022-11-06T10:44:27;10.90;81.80
52799;DHT22;38667;42.872;74.622;2022-11-06T10:47:03;10.80;81.90
52799;DHT22;38667;42.872;74.622;2022-11-06T10:49:35;10.80;82.80
52799;DHT22;38667;42.872;74.622;2022-11-06T10:52:25;10.70;82.80
52799;DHT22;38667;42.872;74.622;2022-11-06T10:55:01;10.60;83.00
52799;DHT22;38667;42.872;74.622;2022-11-06T10:57:37;10.50;83.30
52799;DHT22;38667;42.872;74.622;2022-11-06T11:00:11;10.40;84.60
52799;DHT22;38667;42.872;74.622;2022-11-06T11:02:42;10.40;84.90
52799;DHT22;38667;42.872;74.622;2022-11-06T11:05:11;10.50;85.10
52799;DHT22;38667;42.872;74.622;2022-11-06T11:07:40;10.50;85.00
52799;DHT22;38667;42.872;74.622;2022-11-06T11:10:28;10.50;85.10
52799;DHT22;38667;42.872;74.622;2022-11-06T11:12:57;10.40;84.80
52799;DHT22;38667;42.872;74.622;2022-11-06T11:15:25;10.40;85.20
52799;DHT22;38667;42.872;74.622;2022-11-06T11:18:14;10.40;85.30
52799;DHT22;38667;42.872;74.622;2022-11-06T11:20:42;10.30;85.10
52799;DHT22;38667;42.872;74.622;2022-11-06T11:23:17;10.30;84.90
52799;DHT22;38667;42.872;74.622;2022-11-06T11:25:45;10.20;85.60
52799;DHT22;38667;42.872;74.622;2022-11-06T11:28:26;10.20;84.90
52799;DHT22;38667;42.872;74.622;2022-11-06T11:30:54;10.20;85.00
52799;DHT22;38667;42.872;74.622;2022-11-06T11:33:24;10.20;85.10
52799;DHT22;38667;42.872;74.622;2022-11-06T11:35:52;10.10;85.00
52799;DHT22;38667;42.872;74.622;2022-11-06T11:38:20;10.00;85.60
52799;DHT22;38667;42.872;74.622;2022-11-06T11:40:46;10.00;85.90
52799;DHT22;38667;42.872;74.622;2022-11-06T11:43:21;9.90;86.30
52799;DHT22;38667;42.872;74.622;2022-11-06T11:46:01;9.90;85.90
52799;DHT22;38667;42.872;74.622;2022-11-06T11:48:40;9.90;86.00
52799;DHT22;38667;42.872;74.622;2022-11-06T11:51:15;9.80;86.30
52799;DHT22;38667;42.872;74.622;2022-11-06T11:53:45;9.90;86.60
52799;DHT22;38667;42.872;74.622;2022-11-06T11:56:14;9.90;86.50
52799;DHT22;38667;42.872;74.622;2022-11-06T11:58:48;9.90;85.80
52799;DHT22;38667;42.872;74.622;2022-11-06T12:01:15;9.70;86.60
52799;DHT22;38667;42.872;74.622;2022-11-06T12:03:43;9.60;87.70
52799;DHT22;38667;42.872;74.622;2022-11-06T12:06:12;9.60;87.80
52799;DHT22;38667;42.872;74.622;2022-11-06T12:08:44;9.70;88.10
52799;DHT22;38667;42.872;74.622;2022-11-06T12:11:17;9.70;88.50
52799;DHT22;38667;42.872;74.622;2022-11-06T12:13:44;9.70;87.90
52799;DHT22;38667;42.872;74.622;2022-11-06T12:16:14;9.70;87.90
52799;DHT22;38667;42.872;74.622;2022-11-06T12:18:44;9.70;88.30
52799;DHT22;38667;42.872;74.622;2022-11-06T12:21:16;9.70;87.90
52799;DHT22;38667;42.872;74.622;2022-11-06T12:23:49;9.70;87.70
52799;DHT22;38667;42.872;74.622;2022-11-06T12:26:25;9.80;87.70
52799;DHT22;38667;42.872;74.622;2022-11-06T12:28:57;9.80;87.50
52799;DHT22;38667;42.872;74.622;2022-11-06T12:31:34;9.80;87.50
52799;DHT22;38667;42.872;74.622;2022-11-06T12:34:04;9.80;87.70
52799;DHT22;38667;42.872;74.622;2022-11-06T12:36:31;9.80;87.40
52799;DHT22;38667;42.872;74.622;2022-11-06T12:39:02;9.80;87.70
52799;DHT22;38667;42.872;74.622;2022-11-06T12:41:32;9.90;87.80
52799;DHT22;38667;42.872;74.622;2022-11-06T12:44:00;9.90;87.50
52799;DHT22;38667;42.872;74.622;2022-11-06T12:46:35;10.00;87.30
52799;DHT22;38667;42.872;74.622;2022-11-06T12:49:21;10.00;87.40
52799;DHT22;38667;42.872;74.622;2022-11-06T12:52:04;10.00;87.50
52799;DHT22;38667;42.872;74.622;2022-11-06T12:54:49;9.90;86.90
52799;DHT22;38667;42.872;74.622;2022-11-06T12:57:29;9.80;87.50
52799;DHT22;38667;42.872;74.622;2022-11-06T13:00:06;9.80;87.80
52799;DHT22;38667;42.872;74.622;2022-11-06T13:02:54;9.90;88.20
52799;DHT22;38667;42.872;74.622;2022-11-06T13:05:28;9.90;87.40
52799;DHT22;38667;42.872;74.622;2022-11-06T13:08:17;10.00;87.00
52799;DHT22;38667;42.872;74.622;2022-11-06T13:10:55;10.00;86.70
52799;DHT22;38667;42.872;74.622;2022-11-06T13:13:42;10.00;86.80
52799;DHT22;38667;42.872;74.622;2022-11-06T13:16:18;9.90;86.70
52799;DHT22;38667;42.872;74.622;2022-11-06T13:18:51;9.80;88.00
52799;DHT22;38667;42.872;74.622;2022-11-06T13:21:24;9.80;88.40
52799;DHT22;38667;42.872;74.622;2022-11-06T13:23:56;9.80;89.00
52799;DHT22;38667;42.872;74.622;2022-11-06T13:26:27;9.80;89.30
52799;DHT22;38667;42.872;74.622;2022-11-06T13:29:02;9.80;89.50
52799;DHT22;38667;42.872;74.622;2022-11-06T13:31:33;9.90;89.00
52799;DHT22;38667;42.872;74.622;2022-11-06T13:34:02;9.90;89.10
52799;DHT22;38667;42.872;74.622;2022-11-06T13:36:31;9.90;88.50
52799;DHT22;38667;42.872;74.622;2022-11-06T13:39:05;9.90;88.40
52799;DHT22;38667;42.872;74.622;2022-11-06T13:41:35;9.80;88.60
52799;DHT22;38667;42.872;74.622;2022-11-06T13:44:04;9.80;89.40
52799;DHT22;38667;42.872;74.622;2022-11-06T13:46:35;9.80;89.30
52799;DHT22;38667;42.872;74.622;2022-11-06T13:49:11;9.90;89.40
52799;DHT22;38667;42.872;74.622;2022-11-06T13:51:45;9.80;89.00
52799;DHT22;38667;42.872;74.622;2022-11-06T13:54:20;9.80;89.20
52799;DHT22;38667;42.872;74.622;2022-11-06T14:00:09;9.80;89.60
52799;DHT22;38667;42.872;74.622;2022-11-06T14:05:55;9.80;89.20
52799;DHT22;38667;42.872;74.622;2022-11-06T14:08:26;9.80;89.40
52799;DHT22;38667;42.872;74.622;2022-11-06T14:10:58;9.70;90.20
52799;DHT22;38667;42.872;74.622;2022-11-06T14:13:28;9.70;91.00
52799;DHT22;38667;42.872;74.622;2022-11-06T14:16:26;9.60;90.40
52799;DHT22;38667;42.872;74.622;2022-11-06T14:18:55;9.50;91.60
52799;DHT22;38667;42.872;74.622;2022-11-06T14:24:16;9.50;92.30
52799;DHT22;38667;42.872;74.622;2022-11-06T14:26:43;9.50;92.00
52799;DHT22;38667;42.872;74.622;2022-11-06T14:32:38;9.40;92.10
52799;DHT22;38667;42.872;74.622;2022-11-06T14:44:26;9.30;94.00
52799;DHT22;38667;42.872;74.622;2022-11-06T14:46:57;9.30;94.60
52799;DHT22;38667;42.872;74.622;2022-11-06T14:49:32;9.30;94.80
52799;DHT22;38667;42.872;74.622;2022-11-06T14:52:02;9.40;94.60
52799;DHT22;38667;42.872;74.622;2022-11-06T14:54:30;9.30;94.70
52799;DHT22;38667;42.872;74.622;2022-11-06T14:56:58;9.40;94.90
52799;DHT22;38667;42.872;74.622;2022-11-06T14:59:31;9.40;94.60
52799;DHT22;38667;42.872;74.622;2022-11-06T15:02:00;9.40;94.60
52799;DHT22;38667;42.872;74.622;2022-11-06T15:04:31;9.30;95.00
52799;DHT22;38667;42.872;74.622;2022-11-06T15:07:07;9.30;95.40
52799;DHT22;38667;42.872;74.622;2022-11-06T15:09:46;9.30;95.80
52799;DHT22;38667;42.872;74.622;2022-11-06T15:12:12;9.30;95.50
52799;DHT22;38667;42.872;74.622;2022-11-06T15:15:01;9.40;94.90
52799;DHT22;38667;42.872;74.622;2022-11-06T15:17:32;9.40;95.80
52799;DHT22;38667;42.872;74.622;2022-11-06T15:20:06;9.50;95.60
52799;DHT22;38667;42.872;74.622;2022-11-06T15:22:37;9.50;94.60
52799;DHT22;38667;42.872;74.622;2022-11-06T15:25:18;9.60;93.80
52799;DHT22;38667;42.872;74.622;2022-11-06T15:27:50;9.50;94.30
52799;DHT22;38667;42.872;74.622;2022-11-06T15:30:19;9.60;94.50
52799;DHT22;38667;42.872;74.622;2022-11-06T15:32:46;9.50;94.20
52799;DHT22;38667;42.872;74.622;2022-11-06T15:35:18;9.50;94.40
52799;DHT22;38667;42.872;74.622;2022-11-06T15:37:46;9.50;94.60
52799;DHT22;38667;42.872;74.622;2022-11-06T15:40:25;9.50;94.70
52799;DHT22;38667;42.872;74.622;2022-11-06T15:42:52;9.50;94.50
52799;DHT22;38667;42.872;74.622;2022-11-06T15:45:21;9.50;95.10
52799;DHT22;38667;42.872;74.622;2022-11-06T15:47:58;9.50;95.30
52799;DHT22;38667;42.872;74.622;2022-11-06T15:50:28;9.40;94.90
52799;DHT22;38667;42.872;74.622;2022-11-06T15:53:14;9.40;94.50
52799;DHT22;38667;42.872;74.622;2022-11-06T15:55:44;9.50;94.50
52799;DHT22;38667;42.872;74.622;2022-11-06T15:58:26;9.50;94.80
52799;DHT22;38667;42.872;74.622;2022-11-06T16:00:53;9.40;94.90
52799;DHT22;38667;42.872;74.622;2022-11-06T16:03:21;9.40;95.20
52799;DHT22;38667;42.872;74.622;2022-11-06T16:05:50;9.50;95.00
52799;DHT22;38667;42.872;74.622;2022-11-06T16:08:18;9.50;95.00